Time;durP1;ratioP1;P1;durP2;ratioP2;P2;SDS_P1;SDS_P2;PMS_P1;PMS_P2;Temp;Humidity;BMP_temperature;BMP_pressure;BME280_temperature;BME280_humidity;BME280_pressure;Samples;Min_cycle;Max_cycle;Signal;HPM_P1;HPM_P2
2021/12/14 19:26:10;;;;;;;33.30;23.88;;;9.30;99.90;;;;;;5087476;27;20389;-60
2021/12/14 19:28:36;;;;;;;32.00;23.48;;;9.00;99.90;;;;;;5087195;28;20021;-60
2021/12/14 19:31:11;;;;;;;32.85;23.77;;;9.00;99.90;;;;;;5083318;27;20111;-60
2021/12/14 19:33:42;;;;;;;32.28;23.90;;;9.00;99.90;;;;;;5047543;28;20144;-60
2021/12/14 19:36:10;;;;;;;29.55;21.63;;;9.00;99.90;;;;;;5047097;28;20025;-60
2021/12/14 19:38:38;;;;;;;30.00;23.02;;;9.10;99.90;;;;;;5045850;28;20474;-60
2021/12/14 19:41:18;;;;;;;31.27;23.23;;;9.10;99.90;;;;;;5047087;28;20043;-60
2021/12/14 19:43:47;;;;;;;31.35;21.40;;;9.10;99.90;;;;;;5047513;28;20013;-60
2021/12/14 19:46:19;;;;;;;34.13;22.48;;;9.20;99.90;;;;;;5046647;28;20021;-60
2021/12/14 19:48:49;;;;;;;28.77;21.73;;;9.20;99.90;;;;;;5045557;28;20017;-60
2021/12/14 19:51:45;;;;;;;29.70;21.65;;;9.20;99.90;;;;;;5046645;28;20013;-60
2021/12/14 19:54:25;;;;;;;31.48;22.05;;;9.20;99.90;;;;;;5046076;28;20049;-60
2021/12/14 19:56:57;;;;;;;31.65;21.67;;;9.20;99.90;;;;;;5046666;28;20440;-60
2021/12/14 19:59:39;;;;;;;34.17;21.63;;;9.20;99.90;;;;;;5046754;28;20021;-60
2021/12/14 20:02:14;;;;;;;31.77;23.52;;;9.20;99.90;;;;;;5045617;28;20029;-60
2021/12/14 20:04:40;;;;;;;35.25;22.08;;;9.10;99.90;;;;;;5046474;28;20033;-60
2021/12/14 20:07:11;;;;;;;30.67;22.95;;;9.10;99.90;;;;;;5046472;28;20043;-60
2021/12/14 20:09:40;;;;;;;38.13;25.63;;;9.10;99.90;;;;;;5045330;28;20443;-60
2021/12/14 20:12:13;;;;;;;36.40;24.95;;;9.10;99.90;;;;;;5046257;28;20222;-60
2021/12/14 20:14:50;;;;;;;31.65;23.17;;;9.10;99.90;;;;;;5046649;28;20029;-60
2021/12/14 20:17:51;;;;;;;37.20;25.45;;;9.10;99.90;;;;;;5044765;28;20029;-60
2021/12/14 20:20:31;;;;;;;38.88;26.83;;;9.10;99.90;;;;;;5049777;28;20034;-60
2021/12/14 20:23:28;;;;;;;33.17;23.48;;;9.10;99.90;;;;;;5046375;28;20367;-60
2021/12/14 20:26:10;;;;;;;38.33;27.00;;;9.10;99.90;;;;;;5049400;28;20052;-60
2021/12/14 20:28:40;;;;;;;37.90;26.67;;;9.00;99.90;;;;;;5046450;28;20049;-60
2021/12/14 20:31:09;;;;;;;40.47;27.75;;;9.00;99.90;;;;;;5044344;28;20394;-60
2021/12/14 20:33:41;;;;;;;39.90;25.80;;;9.10;99.90;;;;;;5046576;28;20163;-60
2021/12/14 20:36:13;;;;;;;;;;;9.10;99.90;;;;;;5040735;28;20462;-60
2021/12/14 20:38:45;;;;;;;35.42;23.95;;;9.00;99.90;;;;;;5032507;28;19909;-60
2021/12/14 20:41:28;;;;;;;41.17;27.52;;;9.00;99.90;;;;;;5033014;28;20024;-59
2021/12/14 20:46:57;;;;;;;42.00;27.40;;;8.90;99.90;;;;;;5036488;28;20045;-59
2021/12/14 20:49:37;;;;;;;39.60;26.15;;;8.90;99.90;;;;;;5032473;28;20022;-60
2021/12/14 20:52:15;;;;;;;45.15;29.42;;;8.90;99.90;;;;;;5032592;28;20116;-59
2021/12/14 20:55:16;;;;;;;42.95;26.67;;;8.90;99.90;;;;;;5031230;28;20500;-59
2021/12/14 20:57:53;;;;;;;44.70;30.10;;;8.90;99.90;;;;;;5032390;28;20056;-60
2021/12/14 21:00:23;;;;;;;43.55;27.83;;;8.80;99.90;;;;;;5032338;28;20040;-59
2021/12/14 21:02:51;;;;;;;43.33;26.80;;;8.90;99.90;;;;;;5032170;28;20021;-59
2021/12/14 21:05:18;;;;;;;42.13;27.25;;;8.90;99.90;;;;;;5031987;28;20017;-59
2021/12/14 21:07:44;;;;;;;37.35;25.58;;;8.90;99.90;;;;;;5032170;28;20482;-59
2021/12/14 21:10:20;;;;;;;41.55;25.00;;;8.90;99.90;;;;;;5032216;28;20026;-60
2021/12/14 21:12:47;;;;;;;46.63;29.00;;;8.90;99.90;;;;;;5032288;28;20093;-58
2021/12/14 21:15:23;;;;;;;41.08;27.55;;;8.80;99.90;;;;;;5032386;28;20041;-59
2021/12/14 21:17:53;;;;;;;46.20;29.80;;;8.80;99.90;;;;;;5031792;28;20218;-60
2021/12/14 21:20:23;;;;;;;41.40;27.42;;;8.80;99.90;;;;;;5032401;28;20061;-59
2021/12/14 21:22:51;;;;;;;45.15;30.95;;;8.80;99.90;;;;;;5032272;28;20117;-60
2021/12/14 21:25:22;;;;;;;43.97;29.02;;;8.80;99.90;;;;;;5031562;28;20495;-59
2021/12/14 21:27:57;;;;;;;44.10;30.80;;;8.80;99.90;;;;;;5031632;28;20491;-59
2021/12/14 21:30:28;;;;;;;47.50;30.83;;;8.80;99.90;;;;;;5031525;28;20013;-59
2021/12/14 21:33:04;;;;;;;39.55;26.50;;;8.80;99.90;;;;;;5031748;28;20506;-59
2021/12/14 21:35:33;;;;;;;43.20;30.55;;;8.90;99.90;;;;;;5031602;28;20036;-60
2021/12/14 21:38:14;;;;;;;44.45;30.50;;;8.90;99.90;;;;;;5030182;28;20059;-59
2021/12/14 21:40:46;;;;;;;41.05;27.55;;;8.90;99.90;;;;;;5030192;28;20087;-59
2021/12/14 21:46:27;;;;;;;40.45;27.95;;;8.90;99.90;;;;;;5031504;28;20026;-59
2021/12/14 21:48:55;;;;;;;40.88;27.08;;;8.80;99.90;;;;;;5038204;28;20526;-60
2021/12/14 21:51:27;;;;;;;47.78;30.38;;;8.90;99.90;;;;;;5031159;28;20033;-60
2021/12/14 21:53:53;;;;;;;42.25;28.30;;;8.90;99.90;;;;;;5031448;28;20022;-59
2021/12/14 21:56:21;;;;;;;44.63;29.10;;;8.90;99.90;;;;;;5031195;28;20032;-59
2021/12/14 21:58:47;;;;;;;40.53;28.42;;;8.90;99.90;;;;;;5031425;28;20021;-59
2021/12/14 22:01:13;;;;;;;46.22;30.65;;;8.90;99.90;;;;;;5031047;28;20025;-59
2021/12/14 22:03:40;;;;;;;43.38;28.60;;;8.90;99.90;;;;;;5031179;28;20022;-59
2021/12/14 22:06:07;;;;;;;41.20;26.30;;;8.90;99.90;;;;;;5031092;28;20083;-59
2021/12/14 22:08:34;;;;;;;45.05;29.17;;;8.90;99.90;;;;;;5031171;28;20406;-59
2021/12/14 22:11:01;;;;;;;45.10;28.55;;;8.90;99.90;;;;;;5030901;28;20048;-60
2021/12/14 22:13:34;;;;;;;45.25;31.48;;;8.90;99.90;;;;;;5031096;28;20029;-59
2021/12/14 22:16:03;;;;;;;45.88;31.27;;;8.90;99.90;;;;;;5030966;28;20040;-59
2021/12/14 22:18:30;;;;;;;45.53;29.25;;;8.90;99.90;;;;;;5030611;28;20398;-59
2021/12/14 22:21:00;;;;;;;45.50;30.10;;;8.90;99.90;;;;;;5030713;28;20034;-59
2021/12/14 22:23:30;;;;;;;41.40;25.13;;;8.90;99.90;;;;;;5030925;28;20438;-59
2021/12/14 22:25:57;;;;;;;41.45;27.83;;;8.90;99.90;;;;;;5030248;28;20084;-60
2021/12/14 22:28:23;;;;;;;42.45;29.20;;;8.80;99.90;;;;;;5030449;28;20053;-60
2021/12/14 22:30:49;;;;;;;45.45;29.33;;;8.80;99.90;;;;;;5030423;28;20433;-59
2021/12/14 22:33:18;;;;;;;42.58;26.88;;;8.80;99.90;;;;;;5030813;28;20018;-59
2021/12/14 22:35:44;;;;;;;40.80;27.05;;;8.90;99.90;;;;;;5030642;28;20030;-59
2021/12/14 22:38:13;;;;;;;40.47;27.55;;;8.90;99.90;;;;;;5030092;28;20068;-59
2021/12/14 22:41:09;;;;;;;44.00;29.15;;;8.80;99.90;;;;;;5030139;28;20032;-59
2021/12/14 22:46:22;;;;;;;38.45;27.55;;;8.90;99.90;;;;;;5030562;28;20041;-59
2021/12/14 22:48:49;;;;;;;39.00;27.45;;;8.80;99.90;;;;;;5029172;28;20482;-59
2021/12/14 22:51:16;;;;;;;40.05;26.83;;;8.80;99.90;;;;;;5028834;28;20064;-59
2021/12/14 22:53:43;;;;;;;39.45;27.20;;;8.90;99.90;;;;;;5030251;28;20321;-59
2021/12/14 22:56:09;;;;;;;38.55;28.17;;;8.90;99.90;;;;;;5030743;28;20116;-59
2021/12/14 22:58:37;;;;;;;38.38;24.27;;;8.90;99.90;;;;;;5029845;28;20052;-59
2021/12/14 23:01:12;;;;;;;38.85;27.10;;;8.90;99.90;;;;;;5028661;28;20037;-60
2021/12/14 23:03:42;;;;;;;43.45;27.00;;;8.80;99.90;;;;;;5030653;28;20481;-59
2021/12/14 23:06:08;;;;;;;39.90;28.35;;;8.80;99.90;;;;;;5045369;28;20079;-59
2021/12/14 23:08:36;;;;;;;40.78;27.98;;;8.80;99.90;;;;;;5030546;28;20075;-59
2021/12/14 23:11:03;;;;;;;40.25;27.77;;;8.90;99.90;;;;;;5030132;28;20478;-59
2021/12/14 23:13:34;;;;;;;38.47;27.50;;;8.90;99.90;;;;;;5030142;28;20013;-58
2021/12/14 23:16:06;;;;;;;40.95;27.80;;;8.90;99.90;;;;;;5030001;28;20116;-58
2021/12/14 23:18:38;;;;;;;40.00;26.15;;;8.90;99.90;;;;;;5029675;28;20037;-58
2021/12/14 23:21:10;;;;;;;40.35;27.02;;;8.90;99.90;;;;;;5029882;28;20029;-57
2021/12/14 23:23:36;;;;;;;40.77;26.47;;;8.90;99.90;;;;;;5030004;28;20080;-57
2021/12/14 23:26:04;;;;;;;42.42;27.67;;;8.90;99.90;;;;;;5029784;28;20284;-57
2021/12/14 23:28:30;;;;;;;41.00;26.33;;;8.90;99.90;;;;;;5030188;28;20029;-57
2021/12/14 23:31:00;;;;;;;48.08;29.58;;;8.90;99.90;;;;;;5029799;28;20409;-57
2021/12/14 23:33:29;;;;;;;42.25;28.60;;;8.90;99.90;;;;;;5029937;28;20032;-57
2021/12/14 23:36:02;;;;;;;48.67;30.63;;;8.90;99.90;;;;;;5029640;28;20613;-57
2021/12/14 23:38:29;;;;;;;43.47;29.10;;;8.90;99.90;;;;;;5030306;28;20041;-57
2021/12/14 23:40:55;;;;;;;44.75;29.33;;;8.90;99.90;;;;;;5029837;28;20036;-56
2021/12/14 23:43:26;;;;;;;47.25;31.20;;;8.90;99.90;;;;;;5029779;28;20064;-57
2021/12/14 23:45:59;;;;;;;43.85;30.02;;;8.80;99.90;;;;;;5029420;28;20040;-57
2021/12/14 23:48:25;;;;;;;43.92;29.55;;;8.90;99.90;;;;;;5029413;28;20059;-57
2021/12/14 23:50:52;;;;;;;45.65;29.17;;;8.90;99.90;;;;;;5029908;28;20261;-57
2021/12/14 23:53:18;;;;;;;46.83;31.20;;;8.90;99.90;;;;;;5029718;28;20028;-57
2021/12/14 23:55:44;;;;;;;52.40;31.83;;;8.90;99.90;;;;;;5029099;28;20018;-58
2021/12/14 23:58:11;;;;;;;52.15;32.33;;;8.90;99.90;;;;;;5029343;28;20060;-58
